sensor_id;sensor_type;location;lat;lon;timestamp;P1;durP1;ratioP1;P2;durP2;ratioP2
6467;SDS011;3267;48.794;9.928;2024-01-30T05:02:36;2.17;;;1.97;;
6467;SDS011;3267;48.794;9.928;2024-01-30T05:05:03;2.83;;;2.60;;
6467;SDS011;3267;48.794;9.928;2024-01-30T05:07:29;3.07;;;2.53;;
6467;SDS011;3267;48.794;9.928;2024-01-30T05:09:55;2.57;;;1.93;;
6467;SDS011;3267;48.794;9.928;2024-01-30T05:12:21;2.67;;;2.10;;
6467;SDS011;3267;48.794;9.928;2024-01-30T05:14:47;2.97;;;2.10;;
6467;SDS011;3267;48.794;9.928;2024-01-30T05:17:13;2.63;;;1.90;;
6467;SDS011;3267;48.794;9.928;2024-01-30T05:19:38;3.70;;;2.10;;
6467;SDS011;3267;48.794;9.928;2024-01-30T05:22:04;2.03;;;1.93;;
6467;SDS011;3267;48.794;9.928;2024-01-30T05:24:30;2.43;;;1.90;;
6467;SDS011;3267;48.794;9.928;2024-01-30T05:26:57;2.50;;;2.17;;
6467;SDS011;3267;48.794;9.928;2024-01-30T05:29:23;2.07;;;1.90;;
6467;SDS011;3267;48.794;9.928;2024-01-30T05:31:49;2.60;;;2.13;;
6467;SDS011;3267;48.794;9.928;2024-01-30T05:34:15;3.57;;;2.30;;
6467;SDS011;3267;48.794;9.928;2024-01-30T05:36:41;7.77;;;2.87;;
6467;SDS011;3267;48.794;9.928;2024-01-30T05:39:08;3.97;;;2.83;;
6467;SDS011;3267;48.794;9.928;2024-01-30T05:41:34;3.60;;;2.63;;
6467;SDS011;3267;48.794;9.928;2024-01-30T05:43:59;3.43;;;2.73;;
6467;SDS011;3267;48.794;9.928;2024-01-30T05:46:25;2.43;;;2.07;;
6467;SDS011;3267;48.794;9.928;2024-01-30T05:48:51;2.27;;;2.07;;
6467;SDS011;3267;48.794;9.928;2024-01-30T05:51:17;1.97;;;1.80;;
6467;SDS011;3267;48.794;9.928;2024-01-30T05:53:43;2.30;;;1.30;;
6467;SDS011;3267;48.794;9.928;2024-01-30T05:56:09;1.20;;;1.17;;
6467;SDS011;3267;48.794;9.928;2024-01-30T05:58:35;2.77;;;1.50;;
6467;SDS011;3267;48.794;9.928;2024-01-30T06:01:02;2.00;;;1.40;;
6467;SDS011;3267;48.794;9.928;2024-01-30T06:03:28;1.00;;;1.00;;
6467;SDS011;3267;48.794;9.928;2024-01-30T06:05:54;1.90;;;1.27;;
6467;SDS011;3267;48.794;9.928;2024-01-30T06:08:20;1.17;;;1.17;;
6467;SDS011;3267;48.794;9.928;2024-01-30T06:10:47;1.20;;;1.10;;
6467;SDS011;3267;48.794;9.928;2024-01-30T06:13:14;1.50;;;1.40;;
6467;SDS011;3267;48.794;9.928;2024-01-30T06:15:40;1.40;;;1.30;;
6467;SDS011;3267;48.794;9.928;2024-01-30T06:18:05;1.63;;;1.30;;
6467;SDS011;3267;48.794;9.928;2024-01-30T06:20:31;3.37;;;1.67;;
6467;SDS011;3267;48.794;9.928;2024-01-30T06:22:57;1.90;;;1.50;;
6467;SDS011;3267;48.794;9.928;2024-01-30T06:25:23;2.33;;;1.43;;
6467;SDS011;3267;48.794;9.928;2024-01-30T06:27:49;2.40;;;1.87;;
6467;SDS011;3267;48.794;9.928;2024-01-30T06:30:15;1.70;;;1.60;;
6467;SDS011;3267;48.794;9.928;2024-01-30T06:32:41;2.40;;;1.30;;
6467;SDS011;3267;48.794;9.928;2024-01-30T06:35:07;1.40;;;1.30;;
6467;SDS011;3267;48.794;9.928;2024-01-30T06:37:33;1.40;;;1.30;;
6467;SDS011;3267;48.794;9.928;2024-01-30T06:39:59;1.47;;;1.17;;
6467;SDS011;3267;48.794;9.928;2024-01-30T06:42:25;1.00;;;1.00;;
6467;SDS011;3267;48.794;9.928;2024-01-30T06:44:50;1.40;;;1.20;;
6467;SDS011;3267;48.794;9.928;2024-01-30T06:47:16;1.50;;;1.40;;
6467;SDS011;3267;48.794;9.928;2024-01-30T06:49:41;1.37;;;1.27;;
6467;SDS011;3267;48.794;9.928;2024-01-30T06:52:08;1.70;;;1.40;;
6467;SDS011;3267;48.794;9.928;2024-01-30T06:54:34;2.43;;;1.70;;
6467;SDS011;3267;48.794;9.928;2024-01-30T06:57:00;2.10;;;1.40;;
6467;SDS011;3267;48.794;9.928;2024-01-30T06:59:25;1.40;;;1.30;;
6467;SDS011;3267;48.794;9.928;2024-01-30T07:01:51;4.27;;;1.23;;
6467;SDS011;3267;48.794;9.928;2024-01-30T07:04:17;1.50;;;1.30;;
6467;SDS011;3267;48.794;9.928;2024-01-30T07:06:43;3.20;;;1.40;;
6467;SDS011;3267;48.794;9.928;2024-01-30T07:09:09;2.63;;;1.60;;
6467;SDS011;3267;48.794;9.928;2024-01-30T07:11:35;2.50;;;1.40;;
6467;SDS011;3267;48.794;9.928;2024-01-30T07:14:00;1.57;;;1.30;;
6467;SDS011;3267;48.794;9.928;2024-01-30T07:16:28;2.67;;;2.07;;
6467;SDS011;3267;48.794;9.928;2024-01-30T07:18:54;2.10;;;1.90;;
6467;SDS011;3267;48.794;9.928;2024-01-30T07:21:21;2.13;;;2.00;;
6467;SDS011;3267;48.794;9.928;2024-01-30T07:23:53;3.40;;;2.60;;
6467;SDS011;3267;48.794;9.928;2024-01-30T07:26:22;4.27;;;2.57;;
6467;SDS011;3267;48.794;9.928;2024-01-30T07:28:48;4.97;;;2.93;;
6467;SDS011;3267;48.794;9.928;2024-01-30T07:31:15;3.40;;;3.10;;
6467;SDS011;3267;48.794;9.928;2024-01-30T07:33:40;2.80;;;2.50;;
6467;SDS011;3267;48.794;9.928;2024-01-30T07:36:06;3.87;;;2.97;;
6467;SDS011;3267;48.794;9.928;2024-01-30T07:38:32;2.57;;;2.30;;
6467;SDS011;3267;48.794;9.928;2024-01-30T07:40:57;5.83;;;2.00;;
6467;SDS011;3267;48.794;9.928;2024-01-30T07:43:23;2.53;;;1.90;;
6467;SDS011;3267;48.794;9.928;2024-01-30T07:45:49;2.87;;;2.13;;
6467;SDS011;3267;48.794;9.928;2024-01-30T07:48:14;2.53;;;1.90;;
6467;SDS011;3267;48.794;9.928;2024-01-30T07:50:40;1.73;;;1.63;;
6467;SDS011;3267;48.794;9.928;2024-01-30T07:53:06;3.77;;;2.50;;
6467;SDS011;3267;48.794;9.928;2024-01-30T07:55:35;5.80;;;3.30;;
6467;SDS011;3267;48.794;9.928;2024-01-30T07:58:01;3.33;;;2.80;;
6467;SDS011;3267;48.794;9.928;2024-01-30T08:00:28;6.87;;;3.87;;
6467;SDS011;3267;48.794;9.928;2024-01-30T08:02:54;3.33;;;2.70;;
6467;SDS011;3267;48.794;9.928;2024-01-30T08:05:20;5.30;;;3.23;;
6467;SDS011;3267;48.794;9.928;2024-01-30T08:07:50;10.50;;;5.87;;
6467;SDS011;3267;48.794;9.928;2024-01-30T08:10:15;3.73;;;2.33;;
6467;SDS011;3267;48.794;9.928;2024-01-30T08:12:43;1.97;;;1.63;;
6467;SDS011;3267;48.794;9.928;2024-01-30T08:15:09;2.80;;;1.80;;
6467;SDS011;3267;48.794;9.928;2024-01-30T08:17:35;1.50;;;1.40;;
6467;SDS011;3267;48.794;9.928;2024-01-30T08:20:01;3.10;;;2.00;;
6467;SDS011;3267;48.794;9.928;2024-01-30T08:22:29;3.70;;;2.40;;
6467;SDS011;3267;48.794;9.928;2024-01-30T08:24:55;1.47;;;1.30;;
6467;SDS011;3267;48.794;9.928;2024-01-30T08:27:21;3.57;;;1.60;;
6467;SDS011;3267;48.794;9.928;2024-01-30T08:29:46;1.57;;;1.47;;
6467;SDS011;3267;48.794;9.928;2024-01-30T08:32:12;1.43;;;1.33;;
6467;SDS011;3267;48.794;9.928;2024-01-30T08:34:37;1.47;;;1.37;;
6467;SDS011;3267;48.794;9.928;2024-01-30T08:37:03;2.70;;;1.97;;
6467;SDS011;3267;48.794;9.928;2024-01-30T08:39:29;1.50;;;1.33;;
6467;SDS011;3267;48.794;9.928;2024-01-30T08:41:55;2.20;;;1.30;;
6467;SDS011;3267;48.794;9.928;2024-01-30T08:44:21;2.60;;;1.57;;
6467;SDS011;3267;48.794;9.928;2024-01-30T08:46:46;3.87;;;1.67;;
6467;SDS011;3267;48.794;9.928;2024-01-30T08:49:12;4.30;;;2.57;;
6467;SDS011;3267;48.794;9.928;2024-01-30T08:51:39;2.73;;;1.93;;
6467;SDS011;3267;48.794;9.928;2024-01-30T08:54:05;1.67;;;1.57;;
6467;SDS011;3267;48.794;9.928;2024-01-30T08:56:30;2.00;;;1.63;;
6467;SDS011;3267;48.794;9.928;2024-01-30T08:58:56;2.53;;;2.03;;
6467;SDS011;3267;48.794;9.928;2024-01-30T09:01:22;1.67;;;1.57;;
6467;SDS011;3267;48.794;9.928;2024-01-30T09:03:48;3.77;;;1.73;;
6467;SDS011;3267;48.794;9.928;2024-01-30T09:06:13;3.47;;;2.17;;
6467;SDS011;3267;48.794;9.928;2024-01-30T09:08:39;3.63;;;2.13;;
6467;SDS011;3267;48.794;9.928;2024-01-30T09:11:08;1.90;;;1.70;;
6467;SDS011;3267;48.794;9.928;2024-01-30T09:13:38;8.63;;;4.63;;
6467;SDS011;3267;48.794;9.928;2024-01-30T09:16:03;8.17;;;5.40;;
6467;SDS011;3267;48.794;9.928;2024-01-30T09:18:30;12.80;;;8.30;;
6467;SDS011;3267;48.794;9.928;2024-01-30T09:20:56;12.23;;;7.93;;
6467;SDS011;3267;48.794;9.928;2024-01-30T09:23:21;13.10;;;8.37;;
6467;SDS011;3267;48.794;9.928;2024-01-30T09:25:47;10.77;;;7.60;;
6467;SDS011;3267;48.794;9.928;2024-01-30T09:28:13;20.03;;;11.47;;
6467;SDS011;3267;48.794;9.928;2024-01-30T09:30:40;20.53;;;11.77;;
6467;SDS011;3267;48.794;9.928;2024-01-30T09:33:06;16.60;;;11.87;;
6467;SDS011;3267;48.794;9.928;2024-01-30T09:35:31;15.20;;;10.73;;
6467;SDS011;3267;48.794;9.928;2024-01-30T09:37:57;15.30;;;10.13;;
6467;SDS011;3267;48.794;9.928;2024-01-30T09:40:23;14.30;;;9.03;;
6467;SDS011;3267;48.794;9.928;2024-01-30T09:42:52;14.10;;;8.03;;
6467;SDS011;3267;48.794;9.928;2024-01-30T09:45:21;9.73;;;6.40;;
6467;SDS011;3267;48.794;9.928;2024-01-30T09:47:49;9.77;;;5.87;;
6467;SDS011;3267;48.794;9.928;2024-01-30T09:50:15;10.37;;;4.23;;
6467;SDS011;3267;48.794;9.928;2024-01-30T09:52:45;7.60;;;4.60;;
6467;SDS011;3267;48.794;9.928;2024-01-30T09:55:11;6.93;;;4.30;;
6467;SDS011;3267;48.794;9.928;2024-01-30T09:57:37;5.67;;;3.53;;
6467;SDS011;3267;48.794;9.928;2024-01-30T10:00:03;9.80;;;3.72;;
6467;SDS011;3267;48.794;9.928;2024-01-30T10:02:33;5.43;;;2.90;;
6467;SDS011;3267;48.794;9.928;2024-01-30T10:04:59;3.37;;;3.07;;
6467;SDS011;3267;48.794;9.928;2024-01-30T10:07:25;4.87;;;3.73;;
6467;SDS011;3267;48.794;9.928;2024-01-30T10:09:52;10.07;;;4.60;;
6467;SDS011;3267;48.794;9.928;2024-01-30T10:12:18;11.43;;;4.40;;
6467;SDS011;3267;48.794;9.928;2024-01-30T10:14:44;12.52;;;4.90;;
6467;SDS011;3267;48.794;9.928;2024-01-30T10:17:10;4.90;;;3.60;;
6467;SDS011;3267;48.794;9.928;2024-01-30T10:19:37;9.57;;;3.58;;
6467;SDS011;3267;48.794;9.928;2024-01-30T10:22:06;7.80;;;3.53;;
6467;SDS011;3267;48.794;9.928;2024-01-30T10:24:33;5.28;;;3.38;;
6467;SDS011;3267;48.794;9.928;2024-01-30T10:26:59;8.38;;;3.80;;
6467;SDS011;3267;48.794;9.928;2024-01-30T10:29:28;4.57;;;3.15;;
6467;SDS011;3267;48.794;9.928;2024-01-30T10:31:58;4.25;;;3.05;;
6467;SDS011;3267;48.794;9.928;2024-01-30T10:34:27;8.38;;;3.30;;
6467;SDS011;3267;48.794;9.928;2024-01-30T10:39:29;7.10;;;3.03;;
6467;SDS011;3267;48.794;9.928;2024-01-30T10:41:56;4.65;;;2.50;;
6467;SDS011;3267;48.794;9.928;2024-01-30T10:44:28;3.50;;;2.47;;
6467;SDS011;3267;48.794;9.928;2024-01-30T10:47:18;3.75;;;2.10;;
6467;SDS011;3267;48.794;9.928;2024-01-30T10:49:51;2.63;;;2.05;;
6467;SDS011;3267;48.794;9.928;2024-01-30T10:52:19;7.35;;;2.55;;
6467;SDS011;3267;48.794;9.928;2024-01-30T10:54:45;4.38;;;2.75;;
6467;SDS011;3267;48.794;9.928;2024-01-30T10:57:12;4.40;;;2.70;;
6467;SDS011;3267;48.794;9.928;2024-01-30T10:59:38;3.45;;;2.67;;
6467;SDS011;3267;48.794;9.928;2024-01-30T11:02:05;3.40;;;2.83;;
6467;SDS011;3267;48.794;9.928;2024-01-30T11:04:38;3.03;;;2.63;;
6467;SDS011;3267;48.794;9.928;2024-01-30T11:07:15;7.15;;;3.03;;
6467;SDS011;3267;48.794;9.928;2024-01-30T11:09:52;4.03;;;2.67;;
6467;SDS011;3267;48.794;9.928;2024-01-30T11:12:32;5.18;;;3.30;;
6467;SDS011;3267;48.794;9.928;2024-01-30T11:15:08;7.88;;;3.28;;
6467;SDS011;3267;48.794;9.928;2024-01-30T11:22:56;4.70;;;3.17;;
6467;SDS011;3267;48.794;9.928;2024-01-30T11:25:22;4.90;;;3.40;;
6467;SDS011;3267;48.794;9.928;2024-01-30T11:27:55;5.22;;;3.10;;
6467;SDS011;3267;48.794;9.928;2024-01-30T11:30:30;8.00;;;3.47;;
6467;SDS011;3267;48.794;9.928;2024-01-30T11:33:01;4.78;;;3.65;;
6467;SDS011;3267;48.794;9.928;2024-01-30T11:35:32;7.07;;;3.30;;
6467;SDS011;3267;48.794;9.928;2024-01-30T11:37:59;4.63;;;3.60;;
6467;SDS011;3267;48.794;9.928;2024-01-30T11:40:27;3.75;;;3.40;;
6467;SDS011;3267;48.794;9.928;2024-01-30T11:42:54;5.95;;;3.25;;
6467;SDS011;3267;48.794;9.928;2024-01-30T11:45:23;4.30;;;3.60;;
6467;SDS011;3267;48.794;9.928;2024-01-30T11:47:49;4.65;;;3.20;;
6467;SDS011;3267;48.794;9.928;2024-01-30T11:50:15;6.32;;;3.45;;
6467;SDS011;3267;48.794;9.928;2024-01-30T11:52:41;5.70;;;3.33;;
6467;SDS011;3267;48.794;9.928;2024-01-30T11:55:08;4.78;;;3.30;;
6467;SDS011;3267;48.794;9.928;2024-01-30T11:57:34;3.63;;;3.10;;
6467;SDS011;3267;48.794;9.928;2024-01-30T12:00:04;4.35;;;2.70;;
6467;SDS011;3267;48.794;9.928;2024-01-30T12:02:48;4.93;;;3.40;;
6467;SDS011;3267;48.794;9.928;2024-01-30T12:05:24;3.15;;;2.80;;
6467;SDS011;3267;48.794;9.928;2024-01-30T12:07:51;3.20;;;2.72;;
6467;SDS011;3267;48.794;9.928;2024-01-30T12:10:17;3.53;;;3.10;;
6467;SDS011;3267;48.794;9.928;2024-01-30T12:12:45;2.72;;;2.53;;
6467;SDS011;3267;48.794;9.928;2024-01-30T12:15:12;3.47;;;2.72;;
6467;SDS011;3267;48.794;9.928;2024-01-30T12:17:39;3.17;;;2.88;;
6467;SDS011;3267;48.794;9.928;2024-01-30T12:20:05;3.50;;;3.08;;
6467;SDS011;3267;48.794;9.928;2024-01-30T12:22:45;4.97;;;3.30;;
6467;SDS011;3267;48.794;9.928;2024-01-30T12:25:13;3.22;;;2.90;;
6467;SDS011;3267;48.794;9.928;2024-01-30T12:27:45;3.53;;;2.90;;
6467;SDS011;3267;48.794;9.928;2024-01-30T12:30:15;4.07;;;3.20;;
6467;SDS011;3267;48.794;9.928;2024-01-30T12:32:44;5.30;;;3.22;;
6467;SDS011;3267;48.794;9.928;2024-01-30T12:35:18;5.45;;;3.00;;
6467;SDS011;3267;48.794;9.928;2024-01-30T12:37:48;10.50;;;2.70;;
6467;SDS011;3267;48.794;9.928;2024-01-30T12:40:15;4.93;;;3.22;;
6467;SDS011;3267;48.794;9.928;2024-01-30T12:42:43;4.43;;;2.95;;
6467;SDS011;3267;48.794;9.928;2024-01-30T12:45:13;8.07;;;2.65;;
6467;SDS011;3267;48.794;9.928;2024-01-30T12:47:46;4.10;;;2.47;;
6467;SDS011;3267;48.794;9.928;2024-01-30T12:50:12;3.17;;;2.45;;
6467;SDS011;3267;48.794;9.928;2024-01-30T12:52:40;7.15;;;3.88;;
6467;SDS011;3267;48.794;9.928;2024-01-30T12:55:09;2.63;;;2.42;;
6467;SDS011;3267;48.794;9.928;2024-01-30T12:57:35;1.73;;;1.60;;
6467;SDS011;3267;48.794;9.928;2024-01-30T13:00:00;1.98;;;1.88;;
6467;SDS011;3267;48.794;9.928;2024-01-30T13:02:26;2.25;;;1.55;;
6467;SDS011;3267;48.794;9.928;2024-01-30T13:04:59;3.00;;;2.00;;
6467;SDS011;3267;48.794;9.928;2024-01-30T13:07:25;2.83;;;1.60;;
6467;SDS011;3267;48.794;9.928;2024-01-30T13:09:51;1.52;;;1.42;;
6467;SDS011;3267;48.794;9.928;2024-01-30T13:12:16;2.28;;;1.65;;
6467;SDS011;3267;48.794;9.928;2024-01-30T13:14:42;2.13;;;1.83;;
6467;SDS011;3267;48.794;9.928;2024-01-30T13:17:08;2.17;;;1.70;;
6467;SDS011;3267;48.794;9.928;2024-01-30T13:19:34;2.33;;;1.90;;
6467;SDS011;3267;48.794;9.928;2024-01-30T13:21:59;1.60;;;1.50;;
6467;SDS011;3267;48.794;9.928;2024-01-30T13:24:25;1.88;;;1.60;;
6467;SDS011;3267;48.794;9.928;2024-01-30T13:26:51;2.42;;;1.60;;
6467;SDS011;3267;48.794;9.928;2024-01-30T13:29:18;3.75;;;1.75;;
6467;SDS011;3267;48.794;9.928;2024-01-30T13:31:44;1.60;;;1.50;;
6467;SDS011;3267;48.794;9.928;2024-01-30T13:34:11;5.35;;;1.90;;
6467;SDS011;3267;48.794;9.928;2024-01-30T13:36:38;1.65;;;1.55;;
6467;SDS011;3267;48.794;9.928;2024-01-30T13:39:03;1.63;;;1.52;;
6467;SDS011;3267;48.794;9.928;2024-01-30T13:41:32;2.17;;;1.83;;
6467;SDS011;3267;48.794;9.928;2024-01-30T13:43:58;2.47;;;2.03;;
6467;SDS011;3267;48.794;9.928;2024-01-30T13:46:24;3.20;;;1.90;;
6467;SDS011;3267;48.794;9.928;2024-01-30T13:48:50;1.85;;;1.75;;
6467;SDS011;3267;48.794;9.928;2024-01-30T13:51:16;1.75;;;1.65;;
6467;SDS011;3267;48.794;9.928;2024-01-30T13:53:43;1.77;;;1.52;;
6467;SDS011;3267;48.794;9.928;2024-01-30T13:56:10;2.85;;;2.00;;
6467;SDS011;3267;48.794;9.928;2024-01-30T13:58:36;2.15;;;1.60;;
6467;SDS011;3267;48.794;9.928;2024-01-30T14:01:02;8.73;;;2.25;;
6467;SDS011;3267;48.794;9.928;2024-01-30T14:03:27;2.33;;;2.10;;
6467;SDS011;3267;48.794;9.928;2024-01-30T14:05:54;2.50;;;2.30;;
6467;SDS011;3267;48.794;9.928;2024-01-30T14:08:19;2.60;;;2.10;;
6467;SDS011;3267;48.794;9.928;2024-01-30T14:10:49;2.40;;;2.20;;
6467;SDS011;3267;48.794;9.928;2024-01-30T14:13:14;5.32;;;2.15;;
6467;SDS011;3267;48.794;9.928;2024-01-30T14:15:40;2.70;;;2.30;;
6467;SDS011;3267;48.794;9.928;2024-01-30T14:18:05;5.32;;;2.13;;
6467;SDS011;3267;48.794;9.928;2024-01-30T14:20:33;4.40;;;2.42;;
6467;SDS011;3267;48.794;9.928;2024-01-30T14:22:59;6.40;;;3.42;;
6467;SDS011;3267;48.794;9.928;2024-01-30T14:25:26;5.47;;;3.53;;
6467;SDS011;3267;48.794;9.928;2024-01-30T14:27:52;6.70;;;3.63;;
6467;SDS011;3267;48.794;9.928;2024-01-30T14:30:18;6.03;;;3.00;;
6467;SDS011;3267;48.794;9.928;2024-01-30T14:32:43;3.17;;;2.42;;
6467;SDS011;3267;48.794;9.928;2024-01-30T14:35:10;4.18;;;1.95;;
6467;SDS011;3267;48.794;9.928;2024-01-30T14:37:36;4.43;;;2.17;;
6467;SDS011;3267;48.794;9.928;2024-01-30T14:40:03;4.50;;;1.92;;
6467;SDS011;3267;48.794;9.928;2024-01-30T14:42:30;3.40;;;2.25;;
6467;SDS011;3267;48.794;9.928;2024-01-30T14:44:57;3.88;;;2.10;;
6467;SDS011;3267;48.794;9.928;2024-01-30T14:47:24;2.33;;;1.80;;
6467;SDS011;3267;48.794;9.928;2024-01-30T14:49:51;1.52;;;1.42;;
6467;SDS011;3267;48.794;9.928;2024-01-30T14:52:17;2.63;;;2.42;;
6467;SDS011;3267;48.794;9.928;2024-01-30T14:54:43;2.63;;;2.08;;
6467;SDS011;3267;48.794;9.928;2024-01-30T14:57:09;2.72;;;2.22;;
6467;SDS011;3267;48.794;9.928;2024-01-30T14:59:36;2.25;;;1.70;;
6467;SDS011;3267;48.794;9.928;2024-01-30T15:02:01;10.05;;;2.05;;
6467;SDS011;3267;48.794;9.928;2024-01-30T15:04:28;10.30;;;2.35;;
6467;SDS011;3267;48.794;9.928;2024-01-30T15:06:53;2.17;;;1.35;;
6467;SDS011;3267;48.794;9.928;2024-01-30T15:09:19;1.88;;;1.70;;
6467;SDS011;3267;48.794;9.928;2024-01-30T15:11:47;9.30;;;2.05;;
6467;SDS011;3267;48.794;9.928;2024-01-30T15:14:13;1.70;;;1.60;;
6467;SDS011;3267;48.794;9.928;2024-01-30T15:16:39;2.35;;;1.70;;
6467;SDS011;3267;48.794;9.928;2024-01-30T15:19:05;3.95;;;1.77;;
6467;SDS011;3267;48.794;9.928;2024-01-30T15:21:31;3.50;;;2.00;;
6467;SDS011;3267;48.794;9.928;2024-01-30T15:23:57;1.95;;;1.77;;
6467;SDS011;3267;48.794;9.928;2024-01-30T15:26:23;2.67;;;1.55;;
6467;SDS011;3267;48.794;9.928;2024-01-30T15:28:49;1.60;;;1.50;;
6467;SDS011;3267;48.794;9.928;2024-01-30T15:31:16;5.00;;;2.17;;
6467;SDS011;3267;48.794;9.928;2024-01-30T15:33:42;4.75;;;1.95;;
6467;SDS011;3267;48.794;9.928;2024-01-30T15:36:07;2.90;;;1.70;;
6467;SDS011;3267;48.794;9.928;2024-01-30T15:38:34;3.28;;;1.80;;
6467;SDS011;3267;48.794;9.928;2024-01-30T15:41:00;2.00;;;1.88;;
6467;SDS011;3267;48.794;9.928;2024-01-30T15:43:26;2.35;;;1.80;;
6467;SDS011;3267;48.794;9.928;2024-01-30T15:45:53;4.05;;;1.80;;
6467;SDS011;3267;48.794;9.928;2024-01-30T15:48:18;2.60;;;1.58;;
6467;SDS011;3267;48.794;9.928;2024-01-30T15:50:45;2.83;;;1.75;;
6467;SDS011;3267;48.794;9.928;2024-01-30T15:53:10;2.15;;;1.75;;
6467;SDS011;3267;48.794;9.928;2024-01-30T15:55:36;3.47;;;1.83;;
6467;SDS011;3267;48.794;9.928;2024-01-30T15:58:03;2.00;;;1.80;;
6467;SDS011;3267;48.794;9.928;2024-01-30T16:00:29;2.40;;;2.15;;
6467;SDS011;3267;48.794;9.928;2024-01-30T16:02:54;1.90;;;1.70;;
6467;SDS011;3267;48.794;9.928;2024-01-30T16:05:22;5.40;;;2.33;;
6467;SDS011;3267;48.794;9.928;2024-01-30T16:07:48;2.60;;;2.40;;
6467;SDS011;3267;48.794;9.928;2024-01-30T16:10:13;3.85;;;2.70;;
6467;SDS011;3267;48.794;9.928;2024-01-30T16:12:44;3.70;;;2.78;;
6467;SDS011;3267;48.794;9.928;2024-01-30T16:15:11;2.28;;;2.08;;
6467;SDS011;3267;48.794;9.928;2024-01-30T16:17:40;5.28;;;2.25;;
6467;SDS011;3267;48.794;9.928;2024-01-30T16:20:07;3.20;;;1.95;;
6467;SDS011;3267;48.794;9.928;2024-01-30T16:22:33;4.22;;;2.03;;
6467;SDS011;3267;48.794;9.928;2024-01-30T16:25:00;2.50;;;2.30;;
6467;SDS011;3267;48.794;9.928;2024-01-30T16:27:26;4.75;;;2.25;;
6467;SDS011;3267;48.794;9.928;2024-01-30T16:29:52;3.83;;;2.67;;
6467;SDS011;3267;48.794;9.928;2024-01-30T16:32:18;2.78;;;2.58;;
6467;SDS011;3267;48.794;9.928;2024-01-30T16:34:44;4.40;;;2.28;;
6467;SDS011;3267;48.794;9.928;2024-01-30T16:37:10;1.90;;;1.73;;
6467;SDS011;3267;48.794;9.928;2024-01-30T16:39:36;2.85;;;1.77;;
6467;SDS011;3267;48.794;9.928;2024-01-30T16:42:01;2.20;;;2.00;;
6467;SDS011;3267;48.794;9.928;2024-01-30T16:44:28;2.33;;;2.00;;
6467;SDS011;3267;48.794;9.928;2024-01-30T16:46:53;2.90;;;2.25;;
6467;SDS011;3267;48.794;9.928;2024-01-30T16:49:19;2.28;;;2.08;;
6467;SDS011;3267;48.794;9.928;2024-01-30T16:51:45;2.22;;;2.03;;
6467;SDS011;3267;48.794;9.928;2024-01-30T16:54:11;2.92;;;2.15;;
6467;SDS011;3267;48.794;9.928;2024-01-30T16:56:36;2.78;;;1.73;;
6467;SDS011;3267;48.794;9.928;2024-01-30T16:59:02;3.45;;;2.08;;
6467;SDS011;3267;48.794;9.928;2024-01-30T17:01:28;4.47;;;2.40;;
6467;SDS011;3267;48.794;9.928;2024-01-30T17:03:53;2.25;;;2.05;;
6467;SDS011;3267;48.794;9.928;2024-01-30T17:06:19;2.95;;;1.98;;
6467;SDS011;3267;48.794;9.928;2024-01-30T17:08:44;2.92;;;2.55;;
6467;SDS011;3267;48.794;9.928;2024-01-30T17:11:10;3.55;;;2.08;;
6467;SDS011;3267;48.794;9.928;2024-01-30T17:13:36;3.13;;;1.90;;
6467;SDS011;3267;48.794;9.928;2024-01-30T17:16:02;3.17;;;2.13;;
6467;SDS011;3267;48.794;9.928;2024-01-30T17:18:28;4.80;;;3.78;;
6467;SDS011;3267;48.794;9.928;2024-01-30T17:20:55;2.22;;;2.05;;
6467;SDS011;3267;48.794;9.928;2024-01-30T17:23:21;4.78;;;2.42;;
6467;SDS011;3267;48.794;9.928;2024-01-30T17:25:50;3.33;;;2.17;;
6467;SDS011;3267;48.794;9.928;2024-01-30T17:28:16;3.58;;;1.85;;
6467;SDS011;3267;48.794;9.928;2024-01-30T17:30:42;1.98;;;1.80;;
6467;SDS011;3267;48.794;9.928;2024-01-30T17:33:07;1.88;;;1.77;;
6467;SDS011;3267;48.794;9.928;2024-01-30T17:35:33;2.70;;;2.10;;
6467;SDS011;3267;48.794;9.928;2024-01-30T17:37:58;3.13;;;2.15;;
6467;SDS011;3267;48.794;9.928;2024-01-30T17:40:24;2.10;;;1.90;;
6467;SDS011;3267;48.794;9.928;2024-01-30T17:42:50;3.05;;;2.30;;
6467;SDS011;3267;48.794;9.928;2024-01-30T17:45:15;2.50;;;2.15;;
6467;SDS011;3267;48.794;9.928;2024-01-30T17:47:41;3.10;;;2.15;;
6467;SDS011;3267;48.794;9.928;2024-01-30T17:50:07;3.92;;;2.42;;
6467;SDS011;3267;48.794;9.928;2024-01-30T17:52:33;2.60;;;1.85;;
6467;SDS011;3267;48.794;9.928;2024-01-30T17:54:58;1.73;;;1.63;;
6467;SDS011;3267;48.794;9.928;2024-01-30T17:57:24;1.90;;;1.77;;
6467;SDS011;3267;48.794;9.928;2024-01-30T17:59:50;2.33;;;2.10;;
6467;SDS011;3267;48.794;9.928;2024-01-30T18:02:16;2.80;;;2.13;;
6467;SDS011;3267;48.794;9.928;2024-01-30T18:04:41;2.85;;;2.00;;
6467;SDS011;3267;48.794;9.928;2024-01-30T18:07:08;2.42;;;1.88;;
6467;SDS011;3267;48.794;9.928;2024-01-30T18:09:34;4.97;;;2.25;;
6467;SDS011;3267;48.794;9.928;2024-01-30T18:11:59;3.05;;;1.80;;
6467;SDS011;3267;48.794;9.928;2024-01-30T18:14:25;2.90;;;1.70;;
6467;SDS011;3267;48.794;9.928;2024-01-30T18:16:51;4.63;;;1.88;;
6467;SDS011;3267;48.794;9.928;2024-01-30T18:19:17;2.65;;;2.13;;
6467;SDS011;3267;48.794;9.928;2024-01-30T18:21:45;2.22;;;2.03;;
6467;SDS011;3267;48.794;9.928;2024-01-30T18:24:10;1.92;;;1.83;;
6467;SDS011;3267;48.794;9.928;2024-01-30T18:26:36;3.17;;;1.85;;
6467;SDS011;3267;48.794;9.928;2024-01-30T18:29:02;3.30;;;1.98;;
6467;SDS011;3267;48.794;9.928;2024-01-30T18:31:28;4.80;;;3.40;;
6467;SDS011;3267;48.794;9.928;2024-01-30T18:33:54;4.22;;;3.78;;
6467;SDS011;3267;48.794;9.928;2024-01-30T18:36:20;4.82;;;2.95;;
6467;SDS011;3267;48.794;9.928;2024-01-30T18:38:48;5.38;;;3.38;;
6467;SDS011;3267;48.794;9.928;2024-01-30T18:41:15;6.63;;;4.20;;
6467;SDS011;3267;48.794;9.928;2024-01-30T18:43:41;4.63;;;3.65;;
6467;SDS011;3267;48.794;9.928;2024-01-30T18:46:08;4.00;;;3.60;;
6467;SDS011;3267;48.794;9.928;2024-01-30T18:48:35;4.05;;;3.67;;
6467;SDS011;3267;48.794;9.928;2024-01-30T18:51:01;4.93;;;4.18;;
6467;SDS011;3267;48.794;9.928;2024-01-30T18:53:28;6.18;;;4.30;;
6467;SDS011;3267;48.794;9.928;2024-01-30T18:55:54;9.25;;;5.93;;
6467;SDS011;3267;48.794;9.928;2024-01-30T18:58:20;10.68;;;6.85;;
6467;SDS011;3267;48.794;9.928;2024-01-30T19:00:47;6.32;;;4.55;;
6467;SDS011;3267;48.794;9.928;2024-01-30T19:03:14;4.65;;;4.00;;
6467;SDS011;3267;48.794;9.928;2024-01-30T19:05:43;6.82;;;4.13;;
6467;SDS011;3267;48.794;9.928;2024-01-30T19:08:09;9.43;;;3.88;;
6467;SDS011;3267;48.794;9.928;2024-01-30T19:10:36;4.65;;;3.60;;
6467;SDS011;3267;48.794;9.928;2024-01-30T19:13:02;3.88;;;2.75;;
6467;SDS011;3267;48.794;9.928;2024-01-30T19:15:30;3.90;;;3.13;;
6467;SDS011;3267;48.794;9.928;2024-01-30T19:17:56;2.95;;;2.10;;
6467;SDS011;3267;48.794;9.928;2024-01-30T19:20:22;3.60;;;2.08;;
6467;SDS011;3267;48.794;9.928;2024-01-30T19:22:48;2.30;;;2.10;;
6467;SDS011;3267;48.794;9.928;2024-01-30T19:25:14;4.97;;;2.72;;
6467;SDS011;3267;48.794;9.928;2024-01-30T19:27:41;3.47;;;2.30;;
6467;SDS011;3267;48.794;9.928;2024-01-30T19:30:06;5.60;;;2.70;;
6467;SDS011;3267;48.794;9.928;2024-01-30T19:32:36;3.15;;;2.63;;
6467;SDS011;3267;48.794;9.928;2024-01-30T19:35:03;5.90;;;3.55;;
6467;SDS011;3267;48.794;9.928;2024-01-30T19:37:29;2.90;;;2.60;;
6467;SDS011;3267;48.794;9.928;2024-01-30T19:39:57;2.97;;;2.35;;
6467;SDS011;3267;48.794;9.928;2024-01-30T19:42:23;3.67;;;2.20;;
6467;SDS011;3267;48.794;9.928;2024-01-30T19:44:49;3.50;;;2.78;;
6467;SDS011;3267;48.794;9.928;2024-01-30T19:47:14;2.38;;;2.17;;
6467;SDS011;3267;48.794;9.928;2024-01-30T19:49:41;5.82;;;2.28;;
6467;SDS011;3267;48.794;9.928;2024-01-30T19:52:07;3.75;;;2.65;;
6467;SDS011;3267;48.794;9.928;2024-01-30T19:54:34;4.85;;;2.40;;
6467;SDS011;3267;48.794;9.928;2024-01-30T19:57:00;3.63;;;2.30;;
6467;SDS011;3267;48.794;9.928;2024-01-30T19:59:26;3.17;;;2.38;;
6467;SDS011;3267;48.794;9.928;2024-01-30T20:01:53;3.25;;;2.58;;
6467;SDS011;3267;48.794;9.928;2024-01-30T20:04:18;3.15;;;2.40;;
6467;SDS011;3267;48.794;9.928;2024-01-30T20:06:44;2.60;;;2.33;;
6467;SDS011;3267;48.794;9.928;2024-01-30T20:09:10;4.30;;;2.40;;
6467;SDS011;3267;48.794;9.928;2024-01-30T20:11:36;4.25;;;2.80;;
6467;SDS011;3267;48.794;9.928;2024-01-30T20:14:02;4.32;;;2.90;;
6467;SDS011;3267;48.794;9.928;2024-01-30T20:19:02;4.50;;;2.97;;
6467;SDS011;3267;48.794;9.928;2024-01-30T20:21:28;5.00;;;2.95;;
6467;SDS011;3267;48.794;9.928;2024-01-30T20:23:54;5.72;;;3.60;;